sensor_id;sensor_type;location;lat;lon;timestamp;pressure;altitude;pressure_sealevel;temperature;humidity
7888;BME280;3989;48.810;9.208;2023-02-27T10:53:18;99397.38;;;1.96;55.20
7888;BME280;3989;48.810;9.208;2023-02-27T10:56:04;99245.34;;;1.16;53.55
7888;BME280;3989;48.810;9.208;2023-02-27T11:06:24;99439.56;;;2.79;49.82
7888;BME280;3989;48.810;9.208;2023-02-27T11:12:21;99329.75;;;2.21;50.05
7888;BME280;3989;48.810;9.208;2023-02-27T11:15:31;99432.34;;;3.04;48.93
7888;BME280;3989;48.810;9.208;2023-02-27T11:18:23;99415.97;;;3.12;49.28
7888;BME280;3989;48.810;9.208;2023-02-27T11:20:59;99419.72;;;3.32;47.93
7888;BME280;3989;48.810;9.208;2023-02-27T11:23:34;99328.16;;;2.88;46.78
7888;BME280;3989;48.810;9.208;2023-02-27T11:26:09;99414.34;;;3.78;46.50
7888;BME280;3989;48.810;9.208;2023-02-27T11:28:38;99299.81;;;3.25;46.40
7888;BME280;3989;48.810;9.208;2023-02-27T11:31:06;99325.69;;;3.64;45.11
7888;BME280;3989;48.810;9.208;2023-02-27T11:33:47;99410.75;;;3.90;45.24
7888;BME280;3989;48.810;9.208;2023-02-27T11:36:15;99426.94;;;3.74;44.71
7888;BME280;3989;48.810;9.208;2023-02-27T11:38:49;99355.94;;;3.38;44.98
7888;BME280;3989;48.810;9.208;2023-02-27T11:41:17;99399.94;;;3.93;44.87
7888;BME280;3989;48.810;9.208;2023-02-27T11:43:49;99394.59;;;4.15;44.78
7888;BME280;3989;48.810;9.208;2023-02-27T11:46:19;99370.72;;;4.16;44.02
7888;BME280;3989;48.810;9.208;2023-02-27T11:48:48;99412.59;;;4.64;43.03
7888;BME280;3989;48.810;9.208;2023-02-27T11:51:23;99339.53;;;4.42;43.15
7888;BME280;3989;48.810;9.208;2023-02-27T11:54:12;99405.72;;;5.14;42.55
7888;BME280;3989;48.810;9.208;2023-02-27T11:56:42;99387.59;;;5.30;42.84
7888;BME280;3989;48.810;9.208;2023-02-27T11:59:21;99394.44;;;4.91;42.04
7888;BME280;3989;48.810;9.208;2023-02-27T12:01:53;99399.72;;;4.91;43.37
7888;BME280;3989;48.810;9.208;2023-02-27T12:04:26;99400.50;;;5.44;41.84
7888;BME280;3989;48.810;9.208;2023-02-27T12:06:58;99407.06;;;5.80;42.21
7888;BME280;3989;48.810;9.208;2023-02-27T12:09:35;99314.78;;;5.36;41.97
7888;BME280;3989;48.810;9.208;2023-02-27T12:12:07;99393.09;;;5.99;42.13
7888;BME280;3989;48.810;9.208;2023-02-27T12:14:43;99402.69;;;5.90;41.38
7888;BME280;3989;48.810;9.208;2023-02-27T12:17:16;99391.28;;;5.39;41.44
7888;BME280;3989;48.810;9.208;2023-02-27T12:19:55;99351.38;;;5.61;42.32
7888;BME280;3989;48.810;9.208;2023-02-27T12:22:26;99393.56;;;6.13;41.58
7888;BME280;3989;48.810;9.208;2023-02-27T12:24:59;99384.84;;;6.02;42.03
7888;BME280;3989;48.810;9.208;2023-02-27T12:27:36;99393.06;;;6.48;41.70
7888;BME280;3989;48.810;9.208;2023-02-27T12:30:13;99388.88;;;6.55;40.65
7888;BME280;3989;48.810;9.208;2023-02-27T12:32:43;99392.06;;;6.40;42.25
7888;BME280;3989;48.810;9.208;2023-02-27T12:35:16;99390.47;;;6.08;43.76
7888;BME280;3989;48.810;9.208;2023-02-27T12:37:44;99392.69;;;5.73;43.72
7888;BME280;3989;48.810;9.208;2023-02-27T12:40:14;99340.28;;;5.76;44.70
7888;BME280;3989;48.810;9.208;2023-02-27T12:42:52;99374.75;;;6.26;43.82
7888;BME280;3989;48.810;9.208;2023-02-27T12:48:29;99376.00;;;6.22;43.33
7888;BME280;3989;48.810;9.208;2023-02-27T12:51:04;99392.41;;;5.76;42.88
7888;BME280;3989;48.810;9.208;2023-02-27T12:53:57;99375.09;;;5.32;44.21
7888;BME280;3989;48.810;9.208;2023-02-27T12:56:33;99356.81;;;5.08;45.37
7888;BME280;3989;48.810;9.208;2023-02-27T12:59:06;99345.94;;;5.02;43.46
7888;BME280;3989;48.810;9.208;2023-02-27T13:01:46;99391.88;;;5.21;44.73
7888;BME280;3989;48.810;9.208;2023-02-27T13:04:18;99388.25;;;5.53;45.47
7888;BME280;3989;48.810;9.208;2023-02-27T13:06:51;99354.06;;;5.70;45.47
7888;BME280;3989;48.810;9.208;2023-02-27T13:09:30;99406.38;;;5.27;44.96
7888;BME280;3989;48.810;9.208;2023-02-27T13:12:04;99394.81;;;5.49;45.27
7888;BME280;3989;48.810;9.208;2023-02-27T13:14:41;99393.13;;;5.27;45.13
7888;BME280;3989;48.810;9.208;2023-02-27T13:17:17;99378.44;;;4.93;45.56
7888;BME280;3989;48.810;9.208;2023-02-27T13:19:50;99348.78;;;4.89;45.34
7888;BME280;3989;48.810;9.208;2023-02-27T13:22:26;99230.06;;;3.72;46.00
7888;BME280;3989;48.810;9.208;2023-02-27T13:24:57;99392.59;;;4.50;47.19
7888;BME280;3989;48.810;9.208;2023-02-27T13:27:27;99387.53;;;4.58;47.34
7888;BME280;3989;48.810;9.208;2023-02-27T13:30:06;99371.81;;;4.98;46.17
7888;BME280;3989;48.810;9.208;2023-02-27T13:32:43;99354.28;;;4.97;46.05
7888;BME280;3989;48.810;9.208;2023-02-27T13:35:20;99361.41;;;4.86;45.90
7888;BME280;3989;48.810;9.208;2023-02-27T13:37:53;99382.38;;;4.78;46.26
7888;BME280;3989;48.810;9.208;2023-02-27T13:40:33;99360.69;;;4.63;46.63
7888;BME280;3989;48.810;9.208;2023-02-27T13:45:55;99384.72;;;4.39;47.46
7888;BME280;3989;48.810;9.208;2023-02-27T13:48:44;99379.56;;;4.27;46.93
7888;BME280;3989;48.810;9.208;2023-02-27T13:54:33;99383.50;;;3.89;46.97
7888;BME280;3989;48.810;9.208;2023-02-27T13:57:24;99318.16;;;3.37;47.61
7888;BME280;3989;48.810;9.208;2023-02-27T13:59:53;99217.22;;;2.57;47.62
7888;BME280;3989;48.810;9.208;2023-02-27T14:02:41;99361.09;;;3.39;48.53
7888;BME280;3989;48.810;9.208;2023-02-27T14:05:13;99313.25;;;3.22;48.36
7888;BME280;3989;48.810;9.208;2023-02-27T14:07:59;99392.16;;;3.80;47.23
7888;BME280;3989;48.810;9.208;2023-02-27T14:10:29;99384.09;;;3.93;47.41
7888;BME280;3989;48.810;9.208;2023-02-27T14:12:57;99307.56;;;3.59;46.68
7888;BME280;3989;48.810;9.208;2023-02-27T14:15:51;99392.13;;;4.45;46.84
7888;BME280;3989;48.810;9.208;2023-02-27T14:18:49;99383.22;;;4.78;45.68
7888;BME280;3989;48.810;9.208;2023-02-27T14:21:55;99384.31;;;4.75;45.68
7888;BME280;3989;48.810;9.208;2023-02-27T14:24:26;99346.69;;;4.51;45.01
7888;BME280;3989;48.810;9.208;2023-02-27T14:26:54;99393.97;;;4.34;45.05
7888;BME280;3989;48.810;9.208;2023-02-27T14:29:24;99397.75;;;3.98;44.94
7888;BME280;3989;48.810;9.208;2023-02-27T14:31:56;99393.34;;;3.76;45.91
7888;BME280;3989;48.810;9.208;2023-02-27T14:34:24;99398.84;;;3.62;45.78
7888;BME280;3989;48.810;9.208;2023-02-27T14:36:55;99405.22;;;3.48;46.12
7888;BME280;3989;48.810;9.208;2023-02-27T14:39:25;99308.50;;;2.70;46.46
7888;BME280;3989;48.810;9.208;2023-02-27T14:42:01;99407.34;;;3.21;46.27
7888;BME280;3989;48.810;9.208;2023-02-27T14:44:37;99406.41;;;3.22;46.96
7888;BME280;3989;48.810;9.208;2023-02-27T14:47:04;99388.06;;;3.32;47.42
7888;BME280;3989;48.810;9.208;2023-02-27T14:49:32;99385.19;;;3.57;46.22
7888;BME280;3989;48.810;9.208;2023-02-27T14:52:11;99416.13;;;3.66;45.86
7888;BME280;3989;48.810;9.208;2023-02-27T14:54:38;99386.38;;;3.53;45.65
7888;BME280;3989;48.810;9.208;2023-02-27T14:57:06;99392.75;;;3.61;45.86
7888;BME280;3989;48.810;9.208;2023-02-27T14:59:40;99415.28;;;3.65;45.51
7888;BME280;3989;48.810;9.208;2023-02-27T15:02:16;99369.09;;;3.27;46.24
7888;BME280;3989;48.810;9.208;2023-02-27T15:04:52;99401.63;;;3.60;47.22
7888;BME280;3989;48.810;9.208;2023-02-27T15:07:22;99405.00;;;3.51;46.17
7888;BME280;3989;48.810;9.208;2023-02-27T15:09:53;99429.09;;;3.69;46.41
7888;BME280;3989;48.810;9.208;2023-02-27T15:12:21;99423.22;;;3.77;46.16
7888;BME280;3989;48.810;9.208;2023-02-27T15:14:50;99425.25;;;3.62;46.27
7888;BME280;3989;48.810;9.208;2023-02-27T15:17:18;99391.09;;;2.92;46.51
7888;BME280;3989;48.810;9.208;2023-02-27T15:19:47;99450.78;;;2.93;47.17
7888;BME280;3989;48.810;9.208;2023-02-27T15:22:18;99350.28;;;2.28;47.40
7888;BME280;3989;48.810;9.208;2023-02-27T15:24:47;99442.59;;;2.85;47.57
7888;BME280;3989;48.810;9.208;2023-02-27T15:27:17;99408.69;;;2.81;47.05
7888;BME280;3989;48.810;9.208;2023-02-27T15:29:48;99452.66;;;3.15;46.97
7888;BME280;3989;48.810;9.208;2023-02-27T15:32:17;99392.50;;;2.74;47.36
7888;BME280;3989;48.810;9.208;2023-02-27T15:34:46;99456.31;;;3.01;47.12
7888;BME280;3989;48.810;9.208;2023-02-27T15:37:19;99437.69;;;2.81;46.63
7888;BME280;3989;48.810;9.208;2023-02-27T15:39:49;99423.59;;;2.69;47.21
7888;BME280;3989;48.810;9.208;2023-02-27T15:42:18;99430.41;;;2.84;47.58
7888;BME280;3989;48.810;9.208;2023-02-27T15:44:46;99448.53;;;3.00;46.66
7888;BME280;3989;48.810;9.208;2023-02-27T15:47:17;99453.06;;;2.98;46.93
7888;BME280;3989;48.810;9.208;2023-02-27T15:49:49;99455.44;;;2.90;47.32
7888;BME280;3989;48.810;9.208;2023-02-27T15:52:19;99398.69;;;2.38;47.49
7888;BME280;3989;48.810;9.208;2023-02-27T15:54:51;99460.28;;;2.72;47.75
7888;BME280;3989;48.810;9.208;2023-02-27T15:57:22;99462.53;;;2.65;46.95
7888;BME280;3989;48.810;9.208;2023-02-27T15:59:49;99452.72;;;2.44;47.39
7888;BME280;3989;48.810;9.208;2023-02-27T16:02:20;99386.00;;;1.96;47.70
7888;BME280;3989;48.810;9.208;2023-02-27T16:04:48;99470.53;;;2.40;47.80
7888;BME280;3989;48.810;9.208;2023-02-27T16:07:18;99459.78;;;2.20;47.87
7888;BME280;3989;48.810;9.208;2023-02-27T16:09:50;99455.31;;;2.20;47.96
7888;BME280;3989;48.810;9.208;2023-02-27T16:12:22;99499.09;;;2.34;48.46
7888;BME280;3989;48.810;9.208;2023-02-27T16:14:50;99397.84;;;1.65;48.75
7888;BME280;3989;48.810;9.208;2023-02-27T16:17:22;99504.59;;;2.31;48.78
7888;BME280;3989;48.810;9.208;2023-02-27T16:19:49;99418.38;;;1.73;49.42
7888;BME280;3989;48.810;9.208;2023-02-27T16:22:17;99505.97;;;2.24;49.49
7888;BME280;3989;48.810;9.208;2023-02-27T16:24:44;99447.06;;;1.88;49.76
7888;BME280;3989;48.810;9.208;2023-02-27T16:27:18;99441.41;;;1.82;49.24
7888;BME280;3989;48.810;9.208;2023-02-27T16:29:47;99491.81;;;2.01;49.66
7888;BME280;3989;48.810;9.208;2023-02-27T16:32:21;99486.88;;;1.96;49.27
7888;BME280;3989;48.810;9.208;2023-02-27T16:34:49;99463.66;;;1.78;49.91
7888;BME280;3989;48.810;9.208;2023-02-27T16:37:19;99508.13;;;2.06;50.30
7888;BME280;3989;48.810;9.208;2023-02-27T16:39:48;99500.03;;;1.96;49.90
7888;BME280;3989;48.810;9.208;2023-02-27T16:42:16;99515.84;;;1.96;50.08
7888;BME280;3989;48.810;9.208;2023-02-27T16:44:43;99493.41;;;1.78;49.70
7888;BME280;3989;48.810;9.208;2023-02-27T16:47:10;99501.09;;;1.81;49.60
7888;BME280;3989;48.810;9.208;2023-02-27T16:49:37;99511.09;;;1.89;49.55
7888;BME280;3989;48.810;9.208;2023-02-27T16:52:06;99536.56;;;2.01;49.61
7888;BME280;3989;48.810;9.208;2023-02-27T16:54:34;99478.06;;;1.59;48.35
7888;BME280;3989;48.810;9.208;2023-02-27T16:57:01;99538.34;;;1.88;48.34
7888;BME280;3989;48.810;9.208;2023-02-27T16:59:31;99519.22;;;1.61;48.78
7888;BME280;3989;48.810;9.208;2023-02-27T17:02:01;99488.16;;;1.40;49.27
7888;BME280;3989;48.810;9.208;2023-02-27T17:04:28;99554.69;;;1.68;49.31
7888;BME280;3989;48.810;9.208;2023-02-27T17:06:55;99475.22;;;1.25;49.30
7888;BME280;3989;48.810;9.208;2023-02-27T17:09:22;99551.31;;;1.66;49.52
7888;BME280;3989;48.810;9.208;2023-02-27T17:11:51;99562.59;;;1.68;49.23
7888;BME280;3989;48.810;9.208;2023-02-27T17:14:18;99487.72;;;1.21;49.78
7888;BME280;3989;48.810;9.208;2023-02-27T17:16:46;99548.16;;;1.61;50.02
7888;BME280;3989;48.810;9.208;2023-02-27T17:19:13;99541.41;;;1.56;49.88
7888;BME280;3989;48.810;9.208;2023-02-27T17:21:40;99526.03;;;1.38;49.84
7888;BME280;3989;48.810;9.208;2023-02-27T17:24:07;99567.28;;;1.63;50.37
7888;BME280;3989;48.810;9.208;2023-02-27T17:26:37;99542.44;;;1.41;50.59
7888;BME280;3989;48.810;9.208;2023-02-27T17:29:03;99523.88;;;1.18;50.84
7888;BME280;3989;48.810;9.208;2023-02-27T17:31:30;99526.75;;;1.27;50.98
7888;BME280;3989;48.810;9.208;2023-02-27T17:33:58;99535.06;;;1.34;51.31
7888;BME280;3989;48.810;9.208;2023-02-27T17:36:27;99550.34;;;1.41;51.21
7888;BME280;3989;48.810;9.208;2023-02-27T17:38:54;99503.56;;;1.07;51.58
7888;BME280;3989;48.810;9.208;2023-02-27T17:41:25;99568.53;;;1.44;51.39
7888;BME280;3989;48.810;9.208;2023-02-27T17:43:52;99580.44;;;1.50;51.44
7888;BME280;3989;48.810;9.208;2023-02-27T17:46:21;99581.69;;;1.44;51.63
7888;BME280;3989;48.810;9.208;2023-02-27T17:48:48;99583.69;;;1.41;51.98
7888;BME280;3989;48.810;9.208;2023-02-27T17:51:17;99568.28;;;1.22;52.03
7888;BME280;3989;48.810;9.208;2023-02-27T17:53:44;99590.19;;;1.35;52.45
7888;BME280;3989;48.810;9.208;2023-02-27T17:56:11;99495.38;;;0.72;51.98
7888;BME280;3989;48.810;9.208;2023-02-27T17:58:39;99600.91;;;1.32;52.03
7888;BME280;3989;48.810;9.208;2023-02-27T18:01:07;99503.66;;;0.66;52.25
7888;BME280;3989;48.810;9.208;2023-02-27T18:03:35;99574.31;;;1.10;52.26
7888;BME280;3989;48.810;9.208;2023-02-27T18:06:02;99591.72;;;1.13;52.19
7888;BME280;3989;48.810;9.208;2023-02-27T18:08:31;99614.84;;;1.20;52.42
7888;BME280;3989;48.810;9.208;2023-02-27T18:10:58;99604.53;;;1.17;52.66
7888;BME280;3989;48.810;9.208;2023-02-27T18:13:26;99585.44;;;1.01;52.27
7888;BME280;3989;48.810;9.208;2023-02-27T18:15:53;99621.81;;;1.21;52.50
7888;BME280;3989;48.810;9.208;2023-02-27T18:18:21;99586.00;;;1.06;52.37
7888;BME280;3989;48.810;9.208;2023-02-27T18:20:58;99563.00;;;0.83;52.79
7888;BME280;3989;48.810;9.208;2023-02-27T18:23:24;99453.94;;;0.10;52.83
7888;BME280;3989;48.810;9.208;2023-02-27T18:25:54;99626.91;;;1.10;53.52
7888;BME280;3989;48.810;9.208;2023-02-27T18:28:21;99604.34;;;0.93;53.61
7888;BME280;3989;48.810;9.208;2023-02-27T18:30:47;99598.66;;;0.87;53.97
7888;BME280;3989;48.810;9.208;2023-02-27T18:33:14;99622.25;;;1.01;53.58
7888;BME280;3989;48.810;9.208;2023-02-27T18:35:41;99430.16;;;-0.16;53.58
7888;BME280;3989;48.810;9.208;2023-02-27T18:38:07;99509.56;;;0.29;54.09
7888;BME280;3989;48.810;9.208;2023-02-27T18:40:34;99578.13;;;0.65;54.41
7888;BME280;3989;48.810;9.208;2023-02-27T18:43:03;99559.94;;;0.62;53.74
7888;BME280;3989;48.810;9.208;2023-02-27T18:45:30;99596.22;;;0.84;54.07
7888;BME280;3989;48.810;9.208;2023-02-27T18:47:57;99606.34;;;0.90;53.88
7888;BME280;3989;48.810;9.208;2023-02-27T18:50:23;99622.16;;;1.02;53.96
7888;BME280;3989;48.810;9.208;2023-02-27T18:52:50;99529.31;;;0.48;53.57
7888;BME280;3989;48.810;9.208;2023-02-27T18:55:18;99624.09;;;1.13;53.08
7888;BME280;3989;48.810;9.208;2023-02-27T18:57:45;99627.75;;;1.11;53.43
7888;BME280;3989;48.810;9.208;2023-02-27T19:00:13;99468.31;;;0.17;53.39
7888;BME280;3989;48.810;9.208;2023-02-27T19:02:40;99558.28;;;0.61;57.17
7888;BME280;3989;48.810;9.208;2023-02-27T19:05:08;99629.44;;;1.12;56.75
7888;BME280;3989;48.810;9.208;2023-02-27T19:07:36;99632.72;;;1.15;59.30
7888;BME280;3989;48.810;9.208;2023-02-27T19:10:05;99541.75;;;0.59;55.42
7888;BME280;3989;48.810;9.208;2023-02-27T19:12:32;99581.13;;;0.73;56.55
7888;BME280;3989;48.810;9.208;2023-02-27T19:14:59;99540.19;;;0.42;55.92
7888;BME280;3989;48.810;9.208;2023-02-27T19:17:27;99631.91;;;0.74;54.70
7888;BME280;3989;48.810;9.208;2023-02-27T19:19:54;99607.53;;;0.43;54.95
7888;BME280;3989;48.810;9.208;2023-02-27T19:22:20;99515.59;;;-0.40;55.78
7888;BME280;3989;48.810;9.208;2023-02-27T19:24:48;99558.97;;;-0.34;56.94
7888;BME280;3989;48.810;9.208;2023-02-27T19:27:15;99632.81;;;-0.12;57.90
7888;BME280;3989;48.810;9.208;2023-02-27T19:29:44;99639.84;;;-0.27;58.88
7888;BME280;3989;48.810;9.208;2023-02-27T19:32:10;99634.66;;;-0.28;59.71
7888;BME280;3989;48.810;9.208;2023-02-27T19:34:40;99629.81;;;-0.20;58.42
7888;BME280;3989;48.810;9.208;2023-02-27T19:37:07;99631.78;;;-0.24;58.39
7888;BME280;3989;48.810;9.208;2023-02-27T19:39:34;99629.16;;;-0.10;58.03
7888;BME280;3989;48.810;9.208;2023-02-27T19:42:01;99634.41;;;-0.10;57.66
7888;BME280;3989;48.810;9.208;2023-02-27T19:44:28;99637.03;;;-0.10;57.62
7888;BME280;3989;48.810;9.208;2023-02-27T19:46:55;99608.53;;;-0.30;57.84
7888;BME280;3989;48.810;9.208;2023-02-27T19:49:22;99581.47;;;-0.60;57.69
7888;BME280;3989;48.810;9.208;2023-02-27T19:51:50;99524.16;;;-1.10;57.69
7888;BME280;3989;48.810;9.208;2023-02-27T19:54:17;99635.94;;;-0.49;57.80
7888;BME280;3989;48.810;9.208;2023-02-27T19:56:44;99638.25;;;-0.45;57.40
7888;BME280;3989;48.810;9.208;2023-02-27T19:59:11;99591.94;;;-0.90;57.85
7888;BME280;3989;48.810;9.208;2023-02-27T20:01:46;99522.22;;;-1.38;58.22
7888;BME280;3989;48.810;9.208;2023-02-27T20:04:13;99637.69;;;-0.50;57.50
7888;BME280;3989;48.810;9.208;2023-02-27T20:06:43;99571.88;;;-1.05;58.03
7888;BME280;3989;48.810;9.208;2023-02-27T20:09:22;99637.13;;;-0.71;58.41
7888;BME280;3989;48.810;9.208;2023-02-27T20:11:52;99557.94;;;-1.21;58.30
7888;BME280;3989;48.810;9.208;2023-02-27T20:14:21;99532.72;;;-1.53;59.55
7888;BME280;3989;48.810;9.208;2023-02-27T20:16:49;99554.75;;;-1.58;60.23
